sim
Sign-in with your pilot id or email,
or register
Callsign
Passwort

Schedule Details

Flight Number: OEO6348
Departure: Frankfurt Airport (EDDF) at 07:40
Arrival: Delhi Indira Gandhi International Airport (VIDP) at 15:25

Weather Information
Getting current METAR information for EDDF 312050Z 20005KT CAVOK 12/09 Q1018 NOSIG
Getting current METAR information for VIDP 312100Z 00000KT 1200 R28/2000 R29/2000 FU NSC 17/11 Q1013 NOSIG

Schedule Frequency

Route Map